Time,TemperatureF,DewpointF,PressureIn,WindDirection,WindDirectionDegrees,WindSpeedMPH,WindSpeedGustMPH,Humidity,HourlyPrecipIn,Conditions,Clouds,dailyrainin,SoftwareType,DateUTC
2013-08-21 00:03:00,64.7,63.0,30.03,SSE,165,0.0,1.0,95,0.00,,,0.00,weatherlink.com 1.10,2013-08-21 05:03:00,
2013-08-21 00:18:00,65.5,64.0,30.03,SSE,159,0.0,3.0,95,0.00,,,0.00,weatherlink.com 1.10,2013-08-21 05:18:00,
2013-08-21 00:33:00,65.0,64.0,30.03,SSE,165,0.0,1.0,95,0.00,,,0.00,weatherlink.com 1.10,2013-08-21 05:33:00,
2013-08-21 00:48:00,65.0,64.0,30.03,SE,136,0.0,2.0,95,0.00,,,0.00,weatherlink.com 1.10,2013-08-21 05:48:00,
2013-08-21 01:03:00,65.9,65.0,30.03,SSE,162,0.0,2.0,95,0.00,,,0.00,weatherlink.com 1.10,2013-08-21 06:03:00,
2013-08-21 01:18:00,65.8,64.0,30.03,SSE,156,1.0,2.0,94,0.00,,,0.00,weatherlink.com 1.10,2013-08-21 06:18:00,
2013-08-21 01:33:00,65.5,64.0,30.03,SSE,167,0.0,1.0,94,0.00,,,0.00,weatherlink.com 1.10,2013-08-21 06:33:00,
2013-08-21 01:48:00,65.2,64.0,30.03,SSW,193,1.0,2.0,95,0.00,,,0.00,weatherlink.com 1.10,2013-08-21 06:48:00,
2013-08-21 02:03:00,65.2,64.0,30.03,SSW,204,1.0,2.0,95,0.00,,,0.00,weatherlink.com 1.10,2013-08-21 07:03:00,
2013-08-21 02:18:00,64.7,63.0,30.03,South,187,0.0,2.0,95,0.00,,,0.00,weatherlink.com 1.10,2013-08-21 07:18:00,
2013-08-21 02:34:00,64.1,63.0,30.03,SSW,204,0.0,1.0,95,0.00,,,0.00,weatherlink.com 1.10,2013-08-21 07:34:00,
2013-08-21 02:49:00,64.3,64.0,30.02,SSW,203,0.0,3.0,97,0.00,,,0.00,weatherlink.com 1.10,2013-08-21 07:49:00,
2013-08-21 03:04:00,64.7,64.0,30.02,SW,221,0.0,2.0,96,0.00,,,0.00,weatherlink.com 1.10,2013-08-21 08:04:00,
2013-08-21 03:19:00,64.0,63.0,30.02,SSW,200,0.0,1.0,96,0.00,,,0.00,weatherlink.com 1.10,2013-08-21 08:19:00,
2013-08-21 03:34:00,63.8,63.0,30.02,SSW,205,0.0,1.0,96,0.00,,,0.00,weatherlink.com 1.10,2013-08-21 08:34:00,
2013-08-21 03:49:00,63.7,63.0,30.02,South,190,1.0,2.0,97,0.00,,,0.00,weatherlink.com 1.10,2013-08-21 08:49:00,
2013-08-21 04:04:00,64.1,63.0,30.02,SE,128,0.0,2.0,97,0.00,,,0.00,weatherlink.com 1.10,2013-08-21 09:04:00,
2013-08-21 04:19:00,64.4,64.0,30.02,SSW,201,1.0,2.0,97,0.00,,,0.00,weatherlink.com 1.10,2013-08-21 09:19:00,
2013-08-21 04:34:00,64.9,64.0,30.02,SW,215,0.0,4.0,97,0.00,,,0.00,weatherlink.com 1.10,2013-08-21 09:34:00,
2013-08-21 04:49:00,64.9,64.0,30.03,WSW,242,0.0,2.0,96,0.00,,,0.00,weatherlink.com 1.10,2013-08-21 09:49:00,
2013-08-21 05:04:00,64.7,64.0,30.03,WSW,241,0.0,1.0,96,0.00,,,0.00,weatherlink.com 1.10,2013-08-21 10:04:00,
2013-08-21 05:19:00,65.1,64.0,30.03,SW,235,0.0,2.0,96,0.00,,,0.00,weatherlink.com 1.10,2013-08-21 10:19:00,
2013-08-21 05:34:00,64.9,64.0,30.04,SW,214,1.0,2.0,96,0.00,,,0.00,weatherlink.com 1.10,2013-08-21 10:34:00,
2013-08-21 05:49:00,64.8,64.0,30.04,SW,235,1.0,2.0,96,0.00,,,0.00,weatherlink.com 1.10,2013-08-21 10:49:00,
2013-08-21 06:04:00,64.7,64.0,30.04,WSW,238,0.0,2.0,96,0.00,,,0.00,weatherlink.com 1.10,2013-08-21 11:04:00,
2013-08-21 06:19:00,64.7,64.0,30.04,West,269,1.0,2.0,97,0.00,,,0.00,weatherlink.com 1.10,2013-08-21 11:19:00,
2013-08-21 06:34:00,65.3,64.0,30.05,SW,214,0.0,2.0,96,0.00,,,0.00,weatherlink.com 1.10,2013-08-21 11:34:00,
2013-08-21 06:49:00,65.8,65.0,30.05,SW,231,1.0,3.0,97,0.00,,,0.00,weatherlink.com 1.10,2013-08-21 11:49:00,
2013-08-21 07:04:00,66.8,66.0,30.05,WSW,243,2.0,5.0,96,0.00,,,0.00,weatherlink.com 1.10,2013-08-21 12:04:00,
2013-08-21 07:19:00,67.8,66.0,30.05,SW,231,2.0,4.0,95,0.00,,,0.00,weatherlink.com 1.10,2013-08-21 12:19:00,
2013-08-21 07:34:00,68.9,68.0,30.06,SW,233,2.0,3.0,95,0.00,,,0.00,weatherlink.com 1.10,2013-08-21 12:34:00,
2013-08-21 07:49:00,70.1,68.0,30.06,SW,226,3.0,4.0,94,0.00,,,0.00,weatherlink.com 1.10,2013-08-21 12:49:00,
2013-08-21 08:04:00,71.7,69.0,30.06,SW,222,1.0,4.0,92,0.00,,,0.00,weatherlink.com 1.10,2013-08-21 13:04:00,
2013-08-21 08:19:00,73.3,70.0,30.07,SW,232,3.0,5.0,89,0.00,,,0.00,weatherlink.com 1.10,2013-08-21 13:19:00,
2013-08-21 08:34:00,74.6,71.0,30.07,SW,221,3.0,5.0,88,0.00,,,0.00,weatherlink.com 1.10,2013-08-21 13:34:00,
2013-08-21 08:49:00,75.8,71.0,30.06,SW,224,4.0,6.0,84,0.00,,,0.00,weatherlink.com 1.10,2013-08-21 13:49:00,
2013-08-21 09:04:00,76.7,71.0,30.06,WSW,243,3.0,7.0,82,0.00,,,0.00,weatherlink.com 1.10,2013-08-21 14:04:00,
2013-08-21 09:20:00,77.5,72.0,30.06,SW,219,6.0,6.0,82,0.00,,,0.00,weatherlink.com 1.10,2013-08-21 14:20:00,
2013-08-21 09:35:00,78.0,71.0,30.07,WSW,256,6.0,7.0,79,0.00,,,0.00,weatherlink.com 1.10,2013-08-21 14:35:00,
2013-08-21 09:50:00,78.6,71.0,30.06,SW,229,7.0,8.0,77,0.00,,,0.00,weatherlink.com 1.10,2013-08-21 14:50:00,
2013-08-21 10:05:00,79.5,72.0,30.06,WSW,240,6.0,8.0,77,0.00,,,0.00,weatherlink.com 1.10,2013-08-21 15:05:00,
2013-08-21 10:20:00,80.6,72.0,30.06,SSW,208,6.0,7.0,74,0.00,,,0.00,weatherlink.com 1.10,2013-08-21 15:20:00,
2013-08-21 10:35:00,81.6,72.0,30.06,SW,228,6.0,8.0,73,0.00,,,0.00,weatherlink.com 1.10,2013-08-21 15:35:00,
2013-08-21 10:50:00,82.1,71.0,30.06,SSW,210,6.0,8.0,70,0.00,,,0.00,weatherlink.com 1.10,2013-08-21 15:50:00,
2013-08-21 11:05:00,82.7,71.0,30.06,WSW,258,4.0,7.0,68,0.00,,,0.00,weatherlink.com 1.10,2013-08-21 16:05:00,
2013-08-21 11:20:00,83.5,70.0,30.05,SSW,198,1.0,7.0,64,0.00,,,0.00,weatherlink.com 1.10,2013-08-21 16:20:00,
2013-08-21 11:35:00,84.1,72.0,30.05,WSW,243,4.0,7.0,66,0.00,,,0.00,weatherlink.com 1.10,2013-08-21 16:35:00,
2013-08-21 11:50:00,84.5,71.0,30.05,SW,233,7.0,11.0,64,0.00,,,0.00,weatherlink.com 1.10,2013-08-21 16:50:00,
2013-08-21 12:05:00,85.2,69.0,30.04,SSW,212,2.0,8.0,59,0.00,,,0.00,weatherlink.com 1.10,2013-08-21 17:05:00,
2013-08-21 12:20:00,85.7,69.0,30.04,SSW,205,7.0,10.0,58,0.00,,,0.00,weatherlink.com 1.10,2013-08-21 17:20:00,
2013-08-21 12:35:00,86.5,70.0,30.04,WSW,240,3.0,10.0,58,0.00,,,0.00,weatherlink.com 1.10,2013-08-21 17:35:00,
2013-08-21 12:50:00,85.2,69.0,30.04,WSW,257,5.0,9.0,58,0.00,,,0.00,weatherlink.com 1.10,2013-08-21 17:50:00,
2013-08-21 13:05:00,85.0,69.0,30.04,South,184,6.0,11.0,59,0.00,,,0.00,weatherlink.com 1.10,2013-08-21 18:05:00,
2013-08-21 13:20:00,86.0,68.0,30.04,SW,219,6.0,11.0,55,0.00,,,0.00,weatherlink.com 1.10,2013-08-21 18:20:00,
2013-08-21 13:35:00,86.5,69.0,30.03,West,266,4.0,8.0,56,0.00,,,0.00,weatherlink.com 1.10,2013-08-21 18:35:00,
2013-08-21 13:50:00,86.3,69.0,30.03,SSW,194,4.0,8.0,56,0.00,,,0.00,weatherlink.com 1.10,2013-08-21 18:50:00,
2013-08-21 14:05:00,86.7,69.0,30.02,SW,221,7.0,9.0,56,0.00,,,0.00,weatherlink.com 1.10,2013-08-21 19:05:00,
2013-08-21 14:20:00,86.8,69.0,30.02,South,190,3.0,8.0,56,0.00,,,0.00,weatherlink.com 1.10,2013-08-21 19:20:00,
2013-08-21 14:35:00,86.5,69.0,30.02,West,263,3.0,8.0,56,0.00,,,0.00,weatherlink.com 1.10,2013-08-21 19:35:00,
2013-08-21 15:05:00,86.5,68.0,30.01,SW,218,6.0,10.0,55,0.00,,,0.00,weatherlink.com 1.10,2013-08-21 20:05:00,
2013-08-21 15:20:00,86.2,68.0,30.01,WSW,245,4.0,11.0,54,0.00,,,0.00,weatherlink.com 1.10,2013-08-21 20:20:00,
2013-08-21 15:35:00,84.7,67.0,30.01,WSW,240,5.0,8.0,56,0.00,,,0.00,weatherlink.com 1.10,2013-08-21 20:35:00,
2013-08-21 15:50:00,85.7,69.0,30.01,WSW,240,4.0,9.0,57,0.00,,,0.00,weatherlink.com 1.10,2013-08-21 20:50:00,
2013-08-21 16:05:00,86.2,70.0,30.00,SW,235,5.0,9.0,58,0.00,,,0.00,weatherlink.com 1.10,2013-08-21 21:05:00,
2013-08-21 16:21:00,86.3,69.0,30.00,West,269,4.0,9.0,57,0.00,,,0.00,weatherlink.com 1.10,2013-08-21 21:21:00,
2013-08-21 16:36:00,85.5,69.0,30.00,SW,232,4.0,10.0,58,0.00,,,0.00,weatherlink.com 1.10,2013-08-21 21:36:00,
2013-08-21 16:51:00,85.6,69.0,29.99,WSW,245,8.0,9.0,58,0.00,,,0.00,weatherlink.com 1.10,2013-08-21 21:51:00,
2013-08-21 17:06:00,85.1,69.0,29.99,WSW,252,5.0,9.0,58,0.00,,,0.00,weatherlink.com 1.10,2013-08-21 22:06:00,
2013-08-21 17:21:00,84.7,69.0,29.99,WSW,250,3.0,8.0,59,0.00,,,0.00,weatherlink.com 1.10,2013-08-21 22:21:00,
2013-08-21 17:36:00,84.6,69.0,29.98,West,274,6.0,9.0,59,0.00,,,0.00,weatherlink.com 1.10,2013-08-21 22:36:00,
2013-08-21 17:51:00,84.1,69.0,29.98,WSW,250,6.0,9.0,60,0.00,,,0.00,weatherlink.com 1.10,2013-08-21 22:51:00,
2013-08-21 18:06:00,83.8,69.0,29.98,WSW,249,5.0,8.0,62,0.00,,,0.00,weatherlink.com 1.10,2013-08-21 23:06:00,
2013-08-21 18:21:00,83.2,69.0,29.97,WNW,283,4.0,8.0,63,0.00,,,0.00,weatherlink.com 1.10,2013-08-21 23:21:00,
2013-08-21 18:36:00,82.4,69.0,29.97,WSW,257,4.0,6.0,65,0.00,,,0.00,weatherlink.com 1.10,2013-08-21 23:36:00,
2013-08-21 18:51:00,81.3,70.0,29.96,SW,233,0.0,2.0,69,0.00,,,0.00,weatherlink.com 1.10,2013-08-21 23:51:00,
2013-08-21 19:06:00,79.5,70.0,29.96,SW,228,1.0,2.0,73,0.00,,,0.00,weatherlink.com 1.10,2013-08-22 00:06:00,
2013-08-21 19:21:00,77.4,70.0,29.96,WSW,250,1.0,1.0,77,0.00,,,0.00,weatherlink.com 1.10,2013-08-22 00:21:00,
2013-08-21 19:36:00,75.5,69.0,29.96,West,271,0.0,1.0,80,0.00,,,0.00,weatherlink.com 1.10,2013-08-22 00:36:00,
2013-08-21 19:51:00,73.6,69.0,29.97,West,261,0.0,1.0,84,0.00,,,0.00,weatherlink.com 1.10,2013-08-22 00:51:00,
2013-08-21 20:06:00,72.6,68.0,29.97,SW,218,0.0,0.0,86,0.00,,,0.00,weatherlink.com 1.10,2013-08-22 01:06:00,
2013-08-21 20:21:00,71.7,68.0,29.98,WSW,246,0.0,1.0,88,0.00,,,0.00,weatherlink.com 1.10,2013-08-22 01:21:00,
2013-08-21 20:36:00,71.6,68.0,29.99,West,270,0.0,1.0,88,0.00,,,0.00,weatherlink.com 1.10,2013-08-22 01:36:00,
2013-08-21 20:51:00,71.2,68.0,30.00,West,271,0.0,0.0,89,0.00,,,0.00,weatherlink.com 1.10,2013-08-22 01:51:00,
2013-08-21 21:21:00,70.1,68.0,30.01,SSW,209,0.0,1.0,92,0.00,,,0.00,weatherlink.com 1.10,2013-08-22 02:21:00,
2013-08-21 21:36:00,69.9,68.0,30.01,SSW,193,0.0,1.0,92,0.00,,,0.00,weatherlink.com 1.10,2013-08-22 02:36:00,
2013-08-21 21:51:00,69.9,68.0,30.02,SSW,194,0.0,0.0,93,0.00,,,0.00,weatherlink.com 1.10,2013-08-22 02:51:00,
2013-08-21 22:06:00,69.9,68.0,30.02,SSW,203,0.0,2.0,93,0.00,,,0.00,weatherlink.com 1.10,2013-08-22 03:06:00,
2013-08-21 22:21:00,69.9,68.0,30.02,SSW,210,0.0,2.0,93,0.00,,,0.00,weatherlink.com 1.10,2013-08-22 03:21:00,
2013-08-21 22:36:00,69.4,67.0,30.01,SSW,212,0.0,1.0,93,0.00,,,0.00,weatherlink.com 1.10,2013-08-22 03:36:00,
2013-08-21 22:51:00,69.4,68.0,30.01,SSW,212,0.0,2.0,94,0.00,,,0.00,weatherlink.com 1.10,2013-08-22 03:51:00,
2013-08-21 23:06:00,69.8,68.0,30.01,SW,215,0.0,2.0,94,0.00,,,0.00,weatherlink.com 1.10,2013-08-22 04:06:00,
2013-08-21 23:21:00,69.8,68.0,30.01,SW,219,0.0,1.0,93,0.00,,,0.00,weatherlink.com 1.10,2013-08-22 04:21:00,
2013-08-21 23:36:00,69.7,68.0,30.01,SW,218,0.0,2.0,93,0.00,,,0.00,weatherlink.com 1.10,2013-08-22 04:36:00,
2013-08-21 23:51:00,69.8,68.0,30.01,SW,231,0.0,3.0,93,0.00,,,0.00,weatherlink.com 1.10,2013-08-22 04:51:00,